createdAt,value
2022-09-24T00:03:04.247Z,1.52
2022-09-24T00:07:05.723Z,1.08
2022-09-24T00:11:08.052Z,1.25
2022-09-24T00:15:09.898Z,1.35
2022-09-24T00:19:13.727Z,1.35
2022-09-24T00:23:15.184Z,1.60
2022-09-24T00:27:16.640Z,1.48
2022-09-24T00:31:18.210Z,0.77
2022-09-24T00:35:19.666Z,1.58
2022-09-24T00:39:21.117Z,0.80
2022-09-24T00:43:28.278Z,1.20
2022-09-24T00:47:34.710Z,1.30
2022-09-24T00:51:36.972Z,0.82
2022-09-24T00:55:40.444Z,0.98
2022-09-24T00:59:43.354Z,1.02
2022-09-24T01:03:45.665Z,4.53
2022-09-24T01:07:48.676Z,1.00
2022-09-24T01:12:09.822Z,1.30
2022-09-24T01:16:33.429Z,0.90
2022-09-24T01:20:37.583Z,2.05
2022-09-24T01:25:00.510Z,1.20
2022-09-24T01:29:32.128Z,1.15
2022-09-24T01:33:36.311Z,1.23
2022-09-24T01:37:41.172Z,2.03
2022-09-24T01:41:44.387Z,1.55
2022-09-24T01:45:46.371Z,1.65
2022-09-24T01:49:47.888Z,2.10
2022-09-24T01:53:55.727Z,1.48
2022-09-24T01:58:07.868Z,1.40
2022-09-24T02:02:19.790Z,1.63
2022-09-24T02:06:29.033Z,1.08
2022-09-24T02:10:37.941Z,1.27
2022-09-24T02:14:45.054Z,1.37
2022-09-24T02:18:49.992Z,1.55
2022-09-24T02:22:52.975Z,1.50
2022-09-24T02:26:55.031Z,1.40
2022-09-24T02:31:05.521Z,1.20
2022-09-24T02:35:10.193Z,0.80
2022-09-24T02:39:11.662Z,1.50
2022-09-24T02:43:13.095Z,1.85
2022-09-24T02:47:15.490Z,1.10
2022-09-24T02:51:16.912Z,2.70
2022-09-24T02:55:18.463Z,1.27
2022-09-24T02:59:20.056Z,1.15
2022-09-24T03:03:23.049Z,1.67
2022-09-24T03:07:24.462Z,1.15
2022-09-24T03:11:25.923Z,1.70
2022-09-24T03:15:27.339Z,1.48
2022-09-24T03:19:29.296Z,1.20
2022-09-24T03:23:31.345Z,1.65
2022-09-24T03:27:32.771Z,1.77
2022-09-24T03:31:34.254Z,1.42
2022-09-24T03:35:35.709Z,1.48
2022-09-24T03:39:37.106Z,2.30
2022-09-24T03:43:39.183Z,4.05
2022-09-24T03:47:42.310Z,1.65
2022-09-24T03:51:43.834Z,1.50
2022-09-24T03:55:54.318Z,1.15
2022-09-24T03:59:55.737Z,1.83
2022-09-24T04:03:57.247Z,1.83
2022-09-24T04:08:01.095Z,1.20
2022-09-24T04:12:02.641Z,3.38
2022-09-24T04:16:04.594Z,1.35
2022-09-24T04:20:06.599Z,1.33
2022-09-24T04:24:08.197Z,1.67
2022-09-24T04:28:10.728Z,2.13
2022-09-24T04:32:12.124Z,1.35
2022-09-24T04:36:13.564Z,1.52
2022-09-24T04:40:16.093Z,1.52
2022-09-24T04:44:17.686Z,1.77
2022-09-24T04:48:19.092Z,1.50
2022-09-24T04:52:20.601Z,4.25
2022-09-24T04:56:22.086Z,1.42
2022-09-24T05:00:24.405Z,1.30
2022-09-24T05:04:25.812Z,2.75
2022-09-24T05:08:27.831Z,1.58
2022-09-24T05:12:29.341Z,2.67
2022-09-24T05:16:31.013Z,1.00
2022-09-24T05:20:32.985Z,1.55
2022-09-24T05:24:34.403Z,1.60
2022-09-24T05:28:36.318Z,2.55
2022-09-24T05:32:37.822Z,1.58
2022-09-24T05:36:39.232Z,1.85
2022-09-24T05:40:48.914Z,1.60
2022-09-24T05:44:52.398Z,2.20
2022-09-24T05:48:54.063Z,2.10
2022-09-24T05:52:56.025Z,2.00
2022-09-24T05:56:57.792Z,2.55
2022-09-24T06:01:01.510Z,1.40
2022-09-24T06:05:02.967Z,3.53
2022-09-24T06:09:06.006Z,1.35
2022-09-24T06:13:07.999Z,2.65
2022-09-24T06:17:10.126Z,2.00
2022-09-24T06:21:17.741Z,1.65
2022-09-24T06:25:19.163Z,3.88
2022-09-24T06:29:20.572Z,2.15
2022-09-24T06:33:23.321Z,1.83
2022-09-24T06:37:24.772Z,1.70
2022-09-24T06:41:26.177Z,1.70
2022-09-24T06:45:28.108Z,2.13
2022-09-24T06:49:33.902Z,2.88
2022-09-24T06:53:35.657Z,1.48
2022-09-24T06:57:37.173Z,2.72
2022-09-24T07:01:38.724Z,2.13
2022-09-24T07:05:43.566Z,2.30
2022-09-24T07:09:45.432Z,4.60
2022-09-24T07:13:46.892Z,2.25
2022-09-24T07:17:48.367Z,2.45
2022-09-24T07:21:49.794Z,3.70
2022-09-24T07:25:56.230Z,2.10
2022-09-24T07:29:57.780Z,3.03
2022-09-24T07:33:59.764Z,2.40
2022-09-24T07:38:03.683Z,2.83
2022-09-24T07:42:05.658Z,6.93
2022-09-24T07:46:07.203Z,6.53
2022-09-24T07:50:09.144Z,3.70
2022-09-24T07:54:15.079Z,2.13
2022-09-24T07:58:19.146Z,1.90
2022-09-24T08:02:20.556Z,2.60
2022-09-24T08:06:23.150Z,2.92
2022-09-24T08:10:26.898Z,2.97
2022-09-24T08:14:28.296Z,2.97
2022-09-24T08:18:31.762Z,4.65
2022-09-24T08:22:33.528Z,4.65
2022-09-24T08:26:35.016Z,3.65
2022-09-24T08:30:36.442Z,5.53
2022-09-24T08:34:40.474Z,3.10
2022-09-24T08:38:42.044Z,4.65
2022-09-24T08:42:53.243Z,7.15
2022-09-24T08:47:25.196Z,4.75
2022-09-24T08:51:32.817Z,3.63
2022-09-24T08:55:48.185Z,6.68
2022-09-24T08:59:52.352Z,6.70
2022-09-24T09:04:04.946Z,5.15
2022-09-24T09:08:46.722Z,6.45
2022-09-24T09:12:45.760Z,4.03
2022-09-24T09:16:57.360Z,4.82
2022-09-24T09:21:32.763Z,7.05
2022-09-24T09:25:36.806Z,5.28
2022-09-24T09:29:38.261Z,3.65
2022-09-24T09:34:13.865Z,8.25
2022-09-24T09:38:52.845Z,5.32
2022-09-24T09:43:09.075Z,9.23
2022-09-24T09:47:24.919Z,5.78
2022-09-24T09:51:27.089Z,4.72
2022-09-24T09:55:36.082Z,5.78
2022-09-24T09:59:38.399Z,3.75
2022-09-24T10:03:46.325Z,8.25
2022-09-24T10:07:47.810Z,3.85
2022-09-24T10:11:49.342Z,3.05
2022-09-24T10:15:53.580Z,4.32
2022-09-24T10:19:55.893Z,5.88
2022-09-24T10:24:02.184Z,4.80
2022-09-24T10:28:27.828Z,2.97
2022-09-24T10:32:29.730Z,5.68
2022-09-24T10:36:35.068Z,6.03
2022-09-24T10:40:40.896Z,3.97
2022-09-24T10:44:42.335Z,5.55
2022-09-24T10:48:48.092Z,2.42
2022-09-24T10:53:08.648Z,2.20
2022-09-24T10:57:34.227Z,3.22
2022-09-24T11:01:51.459Z,2.83
2022-09-24T11:05:56.789Z,2.95
2022-09-24T11:10:14.429Z,6.40
2022-09-24T11:14:21.911Z,3.65
2022-09-24T11:18:38.540Z,2.03
2022-09-24T11:23:12.721Z,3.10
2022-09-24T11:27:43.816Z,2.78
2022-09-24T11:32:09.653Z,2.72
2022-09-24T11:36:23.278Z,3.00
2022-09-24T11:41:10.269Z,2.20
2022-09-24T11:45:42.093Z,3.28
2022-09-24T11:50:10.933Z,1.83
2022-09-24T11:54:35.028Z,1.77
2022-09-24T11:58:43.791Z,4.68
2022-09-24T12:02:59.147Z,3.23
2022-09-24T12:07:13.732Z,2.55
2022-09-24T12:11:31.475Z,1.50
2022-09-24T12:15:46.034Z,1.95
2022-09-24T12:19:57.897Z,2.60
2022-09-24T12:24:03.380Z,3.40
2022-09-24T12:28:05.593Z,3.15
2022-09-24T12:32:39.480Z,7.15
2022-09-24T12:36:57.195Z,1.70
2022-09-24T12:41:22.065Z,1.85
2022-09-24T12:45:25.099Z,1.83
2022-09-24T12:49:26.504Z,1.50
2022-09-24T12:53:37.260Z,2.00
2022-09-24T12:57:49.421Z,2.05
2022-09-24T13:01:50.998Z,1.42
2022-09-24T13:05:52.560Z,2.55
2022-09-24T13:09:54.039Z,1.85
2022-09-24T13:14:21.984Z,1.80
2022-09-24T13:18:25.006Z,2.67
2022-09-24T13:22:31.912Z,2.03
2022-09-24T13:26:34.631Z,6.18
2022-09-24T13:30:42.890Z,1.95
2022-09-24T13:34:47.257Z,2.10
2022-09-24T13:38:57.911Z,2.17
2022-09-24T13:43:14.586Z,1.77
2022-09-24T13:47:18.988Z,1.15
2022-09-24T13:51:27.243Z,2.30
2022-09-24T13:55:39.991Z,1.67
2022-09-24T13:59:41.449Z,5.63
2022-09-24T14:04:14.597Z,1.88
2022-09-24T14:08:18.341Z,2.05
2022-09-24T14:12:21.962Z,3.00
2022-09-24T14:16:26.452Z,1.67
2022-09-24T14:20:34.858Z,2.97
2022-09-24T14:24:57.062Z,1.85
2022-09-24T14:29:03.510Z,1.95
2022-09-24T14:33:12.394Z,1.48
2022-09-24T14:37:21.291Z,1.57
2022-09-24T14:41:25.621Z,10.10
2022-09-24T14:45:34.139Z,2.13
2022-09-24T14:49:45.403Z,2.70
2022-09-24T14:53:58.076Z,1.75
2022-09-24T14:57:59.509Z,2.90
2022-09-24T15:02:15.682Z,2.88
2022-09-24T15:06:21.599Z,2.80
2022-09-24T15:10:23.792Z,3.92
2022-09-24T15:14:32.825Z,1.77
2022-09-24T15:18:36.938Z,6.43
2022-09-24T15:22:39.030Z,3.35
2022-09-24T15:26:43.908Z,5.55
2022-09-24T15:30:45.549Z,5.63
2022-09-24T15:34:49.044Z,5.70
2022-09-24T15:38:52.412Z,3.08
2022-09-24T15:42:53.860Z,1.98
2022-09-24T15:46:56.765Z,2.53
2022-09-24T15:51:05.870Z,8.18
2022-09-24T15:55:19.281Z,9.55
2022-09-24T15:59:23.221Z,5.85
2022-09-24T16:03:29.332Z,6.07
2022-09-24T16:07:30.761Z,2.95
2022-09-24T16:11:32.411Z,3.20
2022-09-24T16:15:34.612Z,3.97
2022-09-24T16:19:36.053Z,4.10
2022-09-24T16:23:37.539Z,3.38
2022-09-24T16:27:39.687Z,6.38
2022-09-24T16:31:41.191Z,5.07
2022-09-24T16:35:42.741Z,3.55
2022-09-24T16:39:44.199Z,1.92
2022-09-24T16:43:45.676Z,2.00
2022-09-24T16:47:47.208Z,4.00
2022-09-24T16:51:48.622Z,7.40
2022-09-24T16:55:50.049Z,10.65
2022-09-24T16:59:51.487Z,5.00
2022-09-24T17:03:54.879Z,4.30
2022-09-24T17:07:56.388Z,4.80
2022-09-24T17:11:57.881Z,3.33
2022-09-24T17:16:01.526Z,2.75
2022-09-24T17:20:03.685Z,4.20
2022-09-24T17:24:05.348Z,3.15
2022-09-24T17:28:08.117Z,2.92
2022-09-24T17:32:09.784Z,2.15
2022-09-24T17:36:14.014Z,7.22
2022-09-24T17:40:23.019Z,3.92
2022-09-24T17:44:25.493Z,4.32
2022-09-24T17:48:37.929Z,4.60
2022-09-24T17:52:41.444Z,5.63
2022-09-24T17:56:43.053Z,4.85
2022-09-24T18:00:45.870Z,2.50
2022-09-24T18:04:47.285Z,4.38
2022-09-24T18:08:48.738Z,3.25
2022-09-24T18:12:50.263Z,3.67
2022-09-24T18:16:52.036Z,7.47
2022-09-24T18:20:56.802Z,6.20
2022-09-24T18:25:00.665Z,5.22
2022-09-24T18:29:16.315Z,5.78
2022-09-24T18:33:17.762Z,4.93
2022-09-24T18:37:19.164Z,4.78
2022-09-24T18:41:28.885Z,4.60
2022-09-24T18:45:30.721Z,4.90
2022-09-24T18:49:32.159Z,3.35
2022-09-24T18:53:35.185Z,3.22
2022-09-24T18:57:37.748Z,6.28
2022-09-24T19:01:40.158Z,4.60
2022-09-24T19:05:41.700Z,7.03
2022-09-24T19:09:43.109Z,4.03
2022-09-24T19:13:52.041Z,5.47
2022-09-24T19:17:53.751Z,6.32
2022-09-24T19:21:55.145Z,5.38
2022-09-24T19:26:01.644Z,8.88
2022-09-24T19:30:03.213Z,9.07
2022-09-24T19:34:06.530Z,6.15
2022-09-24T19:38:07.932Z,6.85
2022-09-24T19:42:09.323Z,6.15
2022-09-24T19:46:16.901Z,7.28
2022-09-24T19:50:19.296Z,5.05
2022-09-24T19:54:20.797Z,10.90
2022-09-24T19:58:22.370Z,8.02
2022-09-24T20:02:23.947Z,9.88
2022-09-24T20:06:28.727Z,5.25
2022-09-24T20:10:31.239Z,5.93
2022-09-24T20:14:33.819Z,4.35
2022-09-24T20:18:36.141Z,4.28
2022-09-24T20:22:37.919Z,4.35
2022-09-24T20:26:58.099Z,3.78
2022-09-24T20:30:59.567Z,7.38
2022-09-24T20:35:01.084Z,3.92
2022-09-24T20:39:03.859Z,4.25
2022-09-24T20:43:05.284Z,7.80
2022-09-24T20:47:06.699Z,6.05
2022-09-24T20:51:13.192Z,4.28
2022-09-24T20:55:15.662Z,5.07
2022-09-24T20:59:17.195Z,6.10
2022-09-24T21:03:39.647Z,4.63
2022-09-24T21:07:40.219Z,5.22
2022-09-24T21:11:42.061Z,4.10
2022-09-24T21:15:43.566Z,4.88
2022-09-24T21:19:44.993Z,8.30
2022-09-24T21:23:49.431Z,7.93
2022-09-24T21:27:50.844Z,4.68
2022-09-24T21:31:52.292Z,5.43
2022-09-24T21:35:57.413Z,7.65
2022-09-24T21:39:59.380Z,6.75
2022-09-24T21:44:03.068Z,6.55
2022-09-24T21:48:04.563Z,6.25
2022-09-24T21:52:06.672Z,6.30
2022-09-24T21:56:08.279Z,5.78
2022-09-24T22:00:11.089Z,6.07
2022-09-24T22:04:12.547Z,4.22
2022-09-24T22:08:16.575Z,8.10
2022-09-24T22:12:17.980Z,3.92
2022-09-24T22:16:21.619Z,3.05
2022-09-24T22:20:23.216Z,4.45
2022-09-24T22:24:24.629Z,6.00
2022-09-24T22:28:28.206Z,8.82
2022-09-24T22:32:29.640Z,6.28
2022-09-24T22:36:33.184Z,5.88
2022-09-24T22:40:35.821Z,4.68
2022-09-24T22:44:37.285Z,5.43
2022-09-24T22:48:39.817Z,7.18
2022-09-24T22:52:41.259Z,5.03
2022-09-24T22:56:42.814Z,5.85
2022-09-24T23:00:44.872Z,4.30
2022-09-24T23:04:46.411Z,8.55
2022-09-24T23:08:48.936Z,4.10
2022-09-24T23:12:50.456Z,4.28
2022-09-24T23:16:51.942Z,6.78
2022-09-24T23:20:53.416Z,3.88
2022-09-24T23:24:54.913Z,5.65
2022-09-24T23:28:57.605Z,4.85
2022-09-24T23:32:59.014Z,5.03
2022-09-24T23:37:00.440Z,4.78
2022-09-24T23:41:03.603Z,5.93
2022-09-24T23:45:05.543Z,6.47
2022-09-24T23:49:06.987Z,6.38
2022-09-24T23:53:08.403Z,7.10
2022-09-24T23:57:11.333Z,5.65
